Zell Am See, Austria
Current Conditions -  °F | °C
As of 10:20 AM on Saturday 29 Nov 2014 (Local Time) from LOWS Reporting Station
Overcast Overcast  
Wind Chill: 37°   Ceiling: 600
Heat Index: 37°   Visibility: 5mi
Dew Point: 36°   Wind: 3mph
Humidity: 93%   Direction: 300°WNW
Pressure: 29.94"   Gusts: NA
Location:  47.32°N, 12.78°E
Report Text: LOWS 290820Z 30003KT 8000 FEW003 OVC006 03/02 Q1014 NOSIG
Loading
Personal Weather Stations






























Interactive Weather Map New forecast layout! Learn more

10-Day Weather Forecast

Advertisements
Track Severe Weather on mobile